RCH3415 ENOL-EGUN
Flight info
| Callsign | RCH3415 |
|---|---|
| Flight time | 2h 23m |
| Altitude | 24000 |
| Route | KVB DCT VOO DCT STD DCT KRM DCT KLONN DCT ACAGE DCT OTR DCT MAM |
| Aircraft | C30J/M-SDE2E3FGRY/H |
Departure
| Time | 2026-04-21 14:02 |
|---|---|
| Airport | Ørland Airport (ENOL) |
Arrival
| Time | 2026-04-21 16:26 |
|---|---|
| Airport | RAF Mildenhall (EGUN) |
| Time | Latitude | Longitude | Altitude | Speed | Heading |
|---|---|---|---|---|---|
| 2026-04-21 13:44 | 63.69699 | 9.61607 | 33 ft | 0 kts | 97° |
| 2026-04-21 13:49 | 63.69698 | 9.61607 | 33 ft | 0 kts | 97° |
| 2026-04-21 13:50 | 63.69699 | 9.61607 | 33 ft | 0 kts | 97° |
| 2026-04-21 13:50 | 63.69698 | 9.61607 | 33 ft | 0 kts | 97° |
| 2026-04-21 13:51 | 63.69699 | 9.61607 | 33 ft | 0 kts | 97° |
| 2026-04-21 13:51 | 63.69698 | 9.61607 | 33 ft | 0 kts | 97° |
| 2026-04-21 13:51 | 63.69699 | 9.61607 | 33 ft | 0 kts | 97° |
| 2026-04-21 13:51 | 63.69698 | 9.61607 | 33 ft | 0 kts | 97° |
| 2026-04-21 13:52 | 63.69699 | 9.61607 | 33 ft | 0 kts | 97° |
| 2026-04-21 13:52 | 63.69698 | 9.61607 | 33 ft | 0 kts | 97° |
| 2026-04-21 13:53 | 63.69698 | 9.61609 | 33 ft | 0 kts | 97° |
| 2026-04-21 13:56 | 63.69699 | 9.61601 | 33 ft | 2 kts | 97° |
| 2026-04-21 13:56 | 63.69702 | 9.61564 | 33 ft | 2 kts | 104° |
| 2026-04-21 13:56 | 63.69707 | 9.61529 | 33 ft | 2 kts | 115° |
| 2026-04-21 13:56 | 63.69715 | 9.61496 | 33 ft | 2 kts | 132° |
| 2026-04-21 13:57 | 63.69727 | 9.61471 | 33 ft | 2 kts | 156° |
| 2026-04-21 13:57 | 63.69743 | 9.61460 | 32 ft | 2 kts | 177° |
| 2026-04-21 13:57 | 63.69756 | 9.61460 | 33 ft | 1 kts | 187° |
| 2026-04-21 13:57 | 63.69759 | 9.61461 | 33 ft | 0 kts | 188° |
| 2026-04-21 13:59 | 63.69759 | 9.61460 | 33 ft | 1 kts | 188° |
| 2026-04-21 13:59 | 63.69739 | 9.61454 | 32 ft | 5 kts | 186° |
| 2026-04-21 13:59 | 63.69697 | 9.61443 | 32 ft | 7 kts | 187° |
| 2026-04-21 14:00 | 63.69664 | 9.61380 | 31 ft | 7 kts | 248° |
| 2026-04-21 14:00 | 63.69640 | 9.61296 | 31 ft | 7 kts | 220° |
| 2026-04-21 14:00 | 63.69593 | 9.61241 | 31 ft | 9 kts | 210° |
| 2026-04-21 14:00 | 63.69569 | 9.61145 | 31 ft | 9 kts | 249° |
| 2026-04-21 14:01 | 63.69563 | 9.61013 | 31 ft | 11 kts | 268° |
| 2026-04-21 14:01 | 63.69563 | 9.60811 | 31 ft | 15 kts | 282° |
| 2026-04-21 14:01 | 63.69587 | 9.60739 | 31 ft | 0 kts | 329° |
| 2026-04-21 14:01 | 63.69612 | 9.60709 | 31 ft | 28 kts | 335° |
| 2026-04-21 14:02 | 63.70078 | 9.60186 | 35 ft | 115 kts | 330° |
| 2026-04-21 14:02 | 63.70898 | 9.59333 | 282 ft | 142 kts | 333° |
| 2026-04-21 14:02 | 63.71843 | 9.58311 | 741 ft | 153 kts | 332° |
| 2026-04-21 14:03 | 63.73190 | 9.54992 | 2269 ft | 158 kts | 266° |
| 2026-04-21 14:03 | 63.72638 | 9.52908 | 3149 ft | 163 kts | 215° |
| 2026-04-21 14:03 | 63.71534 | 9.52135 | 3978 ft | 171 kts | 193° |
| 2026-04-21 14:03 | 63.70352 | 9.51666 | 4770 ft | 175 kts | 197° |
| 2026-04-21 14:04 | 63.69172 | 9.50818 | 5503 ft | 181 kts | 207° |
| 2026-04-21 14:04 | 63.68068 | 9.49511 | 6276 ft | 182 kts | 217° |
| 2026-04-21 14:04 | 63.67047 | 9.47831 | 7085 ft | 183 kts | 224° |
| 2026-04-21 14:04 | 63.66101 | 9.45909 | 7863 ft | 184 kts | 228° |
| 2026-04-21 14:05 | 63.65212 | 9.43826 | 8665 ft | 185 kts | 231° |
| 2026-04-21 14:05 | 63.64358 | 9.41624 | 9477 ft | 187 kts | 233° |
| 2026-04-21 14:05 | 63.63531 | 9.39341 | 10287 ft | 189 kts | 234° |
| 2026-04-21 14:05 | 63.62717 | 9.36993 | 11015 ft | 192 kts | 236° |
| 2026-04-21 14:06 | 63.61906 | 9.34576 | 11707 ft | 195 kts | 236° |
| 2026-04-21 14:06 | 63.61097 | 9.32111 | 12387 ft | 197 kts | 237° |
| 2026-04-21 14:06 | 63.60282 | 9.29595 | 13066 ft | 200 kts | 237° |
| 2026-04-21 14:06 | 63.59465 | 9.27050 | 13727 ft | 203 kts | 238° |
| 2026-04-21 14:07 | 63.58637 | 9.24456 | 14384 ft | 206 kts | 237° |
| 2026-04-21 14:07 | 63.57797 | 9.21817 | 14960 ft | 209 kts | 237° |
| 2026-04-21 14:07 | 63.56947 | 9.19141 | 15537 ft | 212 kts | 237° |
| 2026-04-21 14:07 | 63.56085 | 9.16424 | 16091 ft | 215 kts | 237° |
| 2026-04-21 14:08 | 63.55214 | 9.13681 | 16651 ft | 218 kts | 237° |
| 2026-04-21 14:08 | 63.54326 | 9.10887 | 17202 ft | 221 kts | 236° |
| 2026-04-21 14:08 | 63.53431 | 9.08072 | 17757 ft | 223 kts | 236° |
| 2026-04-21 14:08 | 63.52525 | 9.05224 | 18296 ft | 226 kts | 236° |
| 2026-04-21 14:09 | 63.51614 | 9.02368 | 18804 ft | 230 kts | 236° |
| 2026-04-21 14:09 | 63.50685 | 8.99456 | 19271 ft | 232 kts | 235° |
| 2026-04-21 14:09 | 63.49742 | 8.96507 | 19724 ft | 234 kts | 235° |
| 2026-04-21 14:09 | 63.48788 | 8.93525 | 20167 ft | 236 kts | 235° |
| 2026-04-21 14:10 | 63.47823 | 8.90514 | 20597 ft | 239 kts | 235° |
| 2026-04-21 14:10 | 63.46851 | 8.87486 | 21025 ft | 241 kts | 235° |
| 2026-04-21 14:10 | 63.45871 | 8.84435 | 21541 ft | 240 kts | 235° |
| 2026-04-21 14:10 | 63.44892 | 8.81395 | 21958 ft | 242 kts | 235° |
| 2026-04-21 14:11 | 63.43904 | 8.78329 | 22378 ft | 244 kts | 235° |
| 2026-04-21 14:11 | 63.42902 | 8.75227 | 22779 ft | 246 kts | 235° |
| 2026-04-21 14:11 | 63.41894 | 8.72110 | 23175 ft | 249 kts | 234° |
| 2026-04-21 14:11 | 63.40875 | 8.68963 | 23572 ft | 251 kts | 234° |
| 2026-04-21 14:12 | 63.39847 | 8.65794 | 23962 ft | 253 kts | 234° |
| 2026-04-21 14:12 | 63.38793 | 8.62549 | 24112 ft | 265 kts | 234° |
| 2026-04-21 14:12 | 63.37692 | 8.59162 | 24124 ft | 280 kts | 234° |
| 2026-04-21 14:12 | 63.36517 | 8.55557 | 24113 ft | 294 kts | 234° |
| 2026-04-21 14:13 | 63.35285 | 8.51784 | 24101 ft | 306 kts | 234° |
| 2026-04-21 14:13 | 63.34010 | 8.47888 | 24104 ft | 316 kts | 234° |
| 2026-04-21 14:13 | 63.32695 | 8.43878 | 24100 ft | 325 kts | 234° |
| 2026-04-21 14:13 | 63.31345 | 8.39765 | 24100 ft | 332 kts | 234° |
| 2026-04-21 14:14 | 63.29965 | 8.35571 | 24095 ft | 338 kts | 234° |
| 2026-04-21 14:14 | 63.28558 | 8.31304 | 24100 ft | 344 kts | 234° |
| 2026-04-21 14:14 | 63.27137 | 8.27001 | 24105 ft | 348 kts | 234° |
| 2026-04-21 14:14 | 63.25698 | 8.22652 | 24102 ft | 352 kts | 233° |
| 2026-04-21 14:15 | 63.24236 | 8.18243 | 24101 ft | 355 kts | 233° |
| 2026-04-21 14:15 | 63.22770 | 8.13829 | 24103 ft | 358 kts | 233° |
| 2026-04-21 14:15 | 63.21284 | 8.09368 | 24103 ft | 360 kts | 233° |
| 2026-04-21 14:15 | 63.19809 | 8.04945 | 24108 ft | 362 kts | 233° |
| 2026-04-21 14:16 | 63.18313 | 8.00467 | 24107 ft | 362 kts | 233° |
| 2026-04-21 14:16 | 63.16814 | 7.95993 | 24104 ft | 363 kts | 233° |
| 2026-04-21 14:16 | 63.15306 | 7.91497 | 24105 ft | 363 kts | 233° |
| 2026-04-21 14:16 | 63.13839 | 7.86953 | 24103 ft | 363 kts | 233° |
| 2026-04-21 14:17 | 63.12091 | 7.82933 | 24108 ft | 363 kts | 219° |
| 2026-04-21 14:17 | 63.10045 | 7.79664 | 24106 ft | 363 kts | 212° |
| 2026-04-21 14:17 | 63.07884 | 7.76769 | 24106 ft | 363 kts | 209° |
| 2026-04-21 14:17 | 63.05678 | 7.74059 | 24106 ft | 363 kts | 208° |
| 2026-04-21 14:18 | 63.03451 | 7.71433 | 24104 ft | 363 kts | 207° |
| 2026-04-21 14:18 | 63.01219 | 7.68856 | 24106 ft | 363 kts | 207° |
| 2026-04-21 14:18 | 62.98978 | 7.66294 | 24106 ft | 363 kts | 207° |
| 2026-04-21 14:18 | 62.96734 | 7.63743 | 24104 ft | 363 kts | 206° |
| 2026-04-21 14:19 | 62.94484 | 7.61195 | 24104 ft | 363 kts | 206° |
| 2026-04-21 14:19 | 62.92236 | 7.58655 | 24110 ft | 363 kts | 207° |
| 2026-04-21 14:19 | 62.89996 | 7.56129 | 24100 ft | 363 kts | 207° |
| 2026-04-21 14:19 | 62.87745 | 7.53596 | 24103 ft | 362 kts | 207° |
| 2026-04-21 14:20 | 62.85506 | 7.51081 | 24103 ft | 362 kts | 207° |
| 2026-04-21 14:20 | 62.83268 | 7.48571 | 24105 ft | 362 kts | 207° |
| 2026-04-21 14:20 | 62.81026 | 7.46060 | 24104 ft | 362 kts | 207° |
| 2026-04-21 14:20 | 62.78815 | 7.43589 | 24107 ft | 361 kts | 206° |
| 2026-04-21 14:21 | 62.76575 | 7.41089 | 24103 ft | 361 kts | 206° |
| 2026-04-21 14:21 | 62.74334 | 7.38592 | 24103 ft | 361 kts | 206° |
| 2026-04-21 14:21 | 62.72103 | 7.36111 | 24106 ft | 361 kts | 206° |
| 2026-04-21 14:21 | 62.69862 | 7.33622 | 24105 ft | 361 kts | 206° |
| 2026-04-21 14:22 | 62.67618 | 7.31135 | 24107 ft | 360 kts | 206° |
| 2026-04-21 14:22 | 62.65390 | 7.28669 | 24105 ft | 361 kts | 206° |
| 2026-04-21 14:22 | 62.63155 | 7.26200 | 24115 ft | 360 kts | 206° |
| 2026-04-21 14:22 | 62.60917 | 7.23732 | 24095 ft | 359 kts | 206° |
| 2026-04-21 14:23 | 62.58696 | 7.21286 | 24110 ft | 359 kts | 206° |
| 2026-04-21 14:23 | 62.56471 | 7.18840 | 24084 ft | 358 kts | 206° |
| 2026-04-21 14:23 | 62.54246 | 7.16397 | 24090 ft | 357 kts | 206° |
| 2026-04-21 14:23 | 62.52030 | 7.13970 | 24082 ft | 357 kts | 206° |
| 2026-04-21 14:24 | 62.49817 | 7.11549 | 24079 ft | 356 kts | 206° |
| 2026-04-21 14:24 | 62.47604 | 7.09131 | 24091 ft | 356 kts | 206° |
| 2026-04-21 14:24 | 62.45388 | 7.06715 | 24082 ft | 356 kts | 206° |
| 2026-04-21 14:24 | 62.43182 | 7.04314 | 24070 ft | 356 kts | 206° |
| 2026-04-21 14:25 | 62.40971 | 7.01911 | 24075 ft | 356 kts | 206° |
| 2026-04-21 14:25 | 62.38763 | 6.99515 | 24073 ft | 356 kts | 206° |
| 2026-04-21 14:25 | 62.36552 | 6.97120 | 24078 ft | 356 kts | 206° |
| 2026-04-21 14:25 | 62.34342 | 6.94731 | 24083 ft | 355 kts | 206° |
| 2026-04-21 14:26 | 62.32161 | 6.92375 | 24070 ft | 354 kts | 206° |
| 2026-04-21 14:26 | 62.29959 | 6.90001 | 24059 ft | 354 kts | 206° |
| 2026-04-21 14:26 | 62.27761 | 6.87636 | 24076 ft | 353 kts | 206° |
| 2026-04-21 14:26 | 62.25565 | 6.85276 | 24063 ft | 352 kts | 206° |
| 2026-04-21 14:27 | 62.23386 | 6.82938 | 24067 ft | 351 kts | 206° |
| 2026-04-21 14:27 | 62.21202 | 6.80599 | 24073 ft | 351 kts | 206° |
| 2026-04-21 14:27 | 62.19018 | 6.78263 | 24075 ft | 351 kts | 206° |
| 2026-04-21 14:27 | 62.16834 | 6.75932 | 24081 ft | 350 kts | 206° |
| 2026-04-21 14:28 | 62.14655 | 6.73610 | 24083 ft | 350 kts | 206° |
| 2026-04-21 14:28 | 62.13207 | 6.72068 | 24104 ft | 350 kts | 206° |
| 2026-04-21 14:28 | 62.11026 | 6.69750 | 24097 ft | 350 kts | 206° |
| 2026-04-21 14:28 | 62.08845 | 6.67435 | 24099 ft | 350 kts | 206° |
| 2026-04-21 14:29 | 62.06662 | 6.65121 | 24108 ft | 350 kts | 206° |
| 2026-04-21 14:29 | 62.04496 | 6.62830 | 24114 ft | 349 kts | 206° |
| 2026-04-21 14:29 | 62.02321 | 6.60533 | 24116 ft | 349 kts | 206° |
| 2026-04-21 14:29 | 62.00144 | 6.58237 | 24117 ft | 349 kts | 206° |
| 2026-04-21 14:30 | 61.97969 | 6.55947 | 24046 ft | 349 kts | 206° |
| 2026-04-21 14:30 | 61.95795 | 6.53661 | 24041 ft | 348 kts | 206° |
| 2026-04-21 14:30 | 61.92919 | 6.50644 | 24042 ft | 348 kts | 206° |
| 2026-04-21 14:30 | 61.91453 | 6.49107 | 24036 ft | 348 kts | 206° |
| 2026-04-21 14:31 | 61.89284 | 6.46838 | 24030 ft | 347 kts | 206° |
| 2026-04-21 14:31 | 61.87116 | 6.44573 | 24044 ft | 347 kts | 206° |
| 2026-04-21 14:31 | 61.84945 | 6.42310 | 24055 ft | 347 kts | 206° |
| 2026-04-21 14:31 | 61.82806 | 6.40081 | 24045 ft | 348 kts | 206° |
| 2026-04-21 14:32 | 61.80632 | 6.37821 | 24046 ft | 347 kts | 206° |
| 2026-04-21 14:32 | 61.78486 | 6.35594 | 24052 ft | 347 kts | 206° |
| 2026-04-21 14:32 | 61.76316 | 6.33345 | 24055 ft | 347 kts | 206° |
| 2026-04-21 14:32 | 61.74148 | 6.31102 | 24049 ft | 347 kts | 206° |
| 2026-04-21 14:33 | 61.71983 | 6.28865 | 24050 ft | 346 kts | 206° |
| 2026-04-21 14:33 | 61.69828 | 6.26641 | 24046 ft | 345 kts | 206° |
| 2026-04-21 14:33 | 61.67665 | 6.24414 | 24046 ft | 345 kts | 206° |
| 2026-04-21 14:33 | 61.65510 | 6.22198 | 24045 ft | 345 kts | 206° |
| 2026-04-21 14:34 | 61.63356 | 6.19985 | 24041 ft | 345 kts | 206° |
| 2026-04-21 14:34 | 61.61205 | 6.17781 | 24035 ft | 345 kts | 206° |
| 2026-04-21 14:34 | 61.59045 | 6.15570 | 24032 ft | 345 kts | 206° |
| 2026-04-21 14:34 | 61.56912 | 6.13390 | 24020 ft | 344 kts | 206° |
| 2026-04-21 14:35 | 61.54758 | 6.11192 | 24017 ft | 345 kts | 206° |
| 2026-04-21 14:35 | 61.52607 | 6.09000 | 24022 ft | 344 kts | 206° |
| 2026-04-21 14:35 | 61.50455 | 6.06810 | 24025 ft | 344 kts | 206° |
| 2026-04-21 14:35 | 61.48300 | 6.04622 | 24022 ft | 345 kts | 206° |
| 2026-04-21 14:36 | 61.46137 | 6.02428 | 24023 ft | 344 kts | 206° |
| 2026-04-21 14:36 | 61.43976 | 6.00240 | 24021 ft | 345 kts | 206° |
| 2026-04-21 14:36 | 61.41822 | 5.98062 | 24025 ft | 344 kts | 206° |
| 2026-04-21 14:36 | 61.39663 | 5.95882 | 24022 ft | 344 kts | 206° |
| 2026-04-21 14:37 | 61.37505 | 5.93708 | 24023 ft | 344 kts | 206° |
| 2026-04-21 14:37 | 61.35352 | 5.91541 | 24026 ft | 344 kts | 206° |
| 2026-04-21 14:37 | 61.33193 | 5.89372 | 24030 ft | 345 kts | 206° |
| 2026-04-21 14:37 | 61.31032 | 5.87204 | 24021 ft | 344 kts | 206° |
| 2026-04-21 14:38 | 61.28878 | 5.85045 | 24026 ft | 344 kts | 206° |
| 2026-04-21 14:38 | 61.26748 | 5.82915 | 24021 ft | 344 kts | 206° |
| 2026-04-21 14:38 | 61.24590 | 5.80760 | 24018 ft | 344 kts | 206° |
| 2026-04-21 14:38 | 61.22431 | 5.78607 | 24024 ft | 344 kts | 206° |
| 2026-04-21 14:39 | 61.20270 | 5.76456 | 24029 ft | 344 kts | 206° |
| 2026-04-21 14:39 | 61.18109 | 5.74307 | 24017 ft | 344 kts | 206° |
| 2026-04-21 14:39 | 61.15947 | 5.72161 | 24002 ft | 344 kts | 206° |
| 2026-04-21 14:39 | 61.13787 | 5.70020 | 24013 ft | 344 kts | 206° |
| 2026-04-21 14:40 | 61.11630 | 5.67886 | 24003 ft | 344 kts | 206° |
| 2026-04-21 14:40 | 61.09472 | 5.65753 | 24005 ft | 343 kts | 206° |
| 2026-04-21 14:40 | 61.07317 | 5.63627 | 24022 ft | 343 kts | 206° |
| 2026-04-21 14:40 | 61.05163 | 5.61505 | 24005 ft | 343 kts | 206° |
| 2026-04-21 14:41 | 61.03014 | 5.59392 | 24013 ft | 342 kts | 206° |
| 2026-04-21 14:41 | 61.00862 | 5.57278 | 24007 ft | 342 kts | 206° |
| 2026-04-21 14:41 | 60.98727 | 5.55184 | 24003 ft | 342 kts | 206° |
| 2026-04-21 14:41 | 60.96581 | 5.53083 | 24013 ft | 342 kts | 206° |
| 2026-04-21 14:42 | 60.94430 | 5.50979 | 24012 ft | 342 kts | 206° |
| 2026-04-21 14:42 | 60.92272 | 5.48873 | 24028 ft | 343 kts | 205° |
| 2026-04-21 14:42 | 60.90123 | 5.46778 | 24019 ft | 342 kts | 205° |
| 2026-04-21 14:42 | 60.87967 | 5.44679 | 24020 ft | 342 kts | 205° |
| 2026-04-21 14:43 | 60.85816 | 5.42589 | 24015 ft | 341 kts | 205° |
| 2026-04-21 14:43 | 60.83699 | 5.40534 | 24023 ft | 341 kts | 205° |
| 2026-04-21 14:43 | 60.81551 | 5.38453 | 24021 ft | 341 kts | 205° |
| 2026-04-21 14:43 | 60.79406 | 5.36378 | 24020 ft | 341 kts | 205° |
| 2026-04-21 14:44 | 60.77260 | 5.34305 | 24012 ft | 341 kts | 205° |
| 2026-04-21 14:44 | 60.75118 | 5.32238 | 24016 ft | 341 kts | 205° |
| 2026-04-21 14:44 | 60.72965 | 5.30165 | 24019 ft | 341 kts | 205° |
| 2026-04-21 14:44 | 60.70820 | 5.28101 | 24020 ft | 341 kts | 205° |
| 2026-04-21 14:45 | 60.68676 | 5.26042 | 24020 ft | 340 kts | 205° |
| 2026-04-21 14:45 | 60.66529 | 5.23983 | 24018 ft | 340 kts | 205° |
| 2026-04-21 14:45 | 60.64433 | 5.21976 | 24020 ft | 340 kts | 205° |
| 2026-04-21 14:45 | 60.62259 | 5.19898 | 24020 ft | 340 kts | 205° |
| 2026-04-21 14:46 | 60.60118 | 5.17853 | 24020 ft | 340 kts | 205° |
| 2026-04-21 14:46 | 60.58014 | 5.15817 | 24023 ft | 340 kts | 204° |
| 2026-04-21 14:46 | 60.55740 | 5.14503 | 24038 ft | 340 kts | 189° |
| 2026-04-21 14:46 | 60.53378 | 5.14197 | 24042 ft | 341 kts | 181° |
| 2026-04-21 14:47 | 60.51003 | 5.14379 | 24027 ft | 342 kts | 177° |
| 2026-04-21 14:47 | 60.48639 | 5.14811 | 24024 ft | 342 kts | 175° |
| 2026-04-21 14:47 | 60.46266 | 5.15371 | 24025 ft | 342 kts | 174° |
| 2026-04-21 14:47 | 60.43899 | 5.15992 | 24027 ft | 343 kts | 174° |
| 2026-04-21 14:48 | 60.41535 | 5.16644 | 24020 ft | 343 kts | 174° |
| 2026-04-21 14:48 | 60.39173 | 5.17311 | 24027 ft | 343 kts | 173° |
| 2026-04-21 14:48 | 60.36808 | 5.17985 | 24025 ft | 343 kts | 173° |
| 2026-04-21 14:48 | 60.34444 | 5.18661 | 24027 ft | 343 kts | 173° |
| 2026-04-21 14:49 | 60.32087 | 5.19337 | 24022 ft | 343 kts | 173° |
| 2026-04-21 14:49 | 60.29725 | 5.20013 | 24024 ft | 342 kts | 173° |
| 2026-04-21 14:49 | 60.27367 | 5.20688 | 24026 ft | 342 kts | 173° |
| 2026-04-21 14:49 | 60.25010 | 5.21362 | 24024 ft | 342 kts | 173° |
| 2026-04-21 14:50 | 60.23451 | 5.21807 | 24022 ft | 342 kts | 173° |
| 2026-04-21 14:50 | 60.20328 | 5.22697 | 24024 ft | 341 kts | 173° |
| 2026-04-21 14:50 | 60.17974 | 5.23367 | 24026 ft | 341 kts | 173° |
| 2026-04-21 14:50 | 60.15626 | 5.24034 | 24023 ft | 341 kts | 173° |
| 2026-04-21 14:51 | 60.13276 | 5.24700 | 24026 ft | 341 kts | 173° |
| 2026-04-21 14:51 | 60.10922 | 5.25367 | 24026 ft | 341 kts | 173° |
| 2026-04-21 14:51 | 60.08567 | 5.26033 | 24029 ft | 341 kts | 173° |
| 2026-04-21 14:51 | 60.06219 | 5.26695 | 24035 ft | 341 kts | 173° |
| 2026-04-21 14:52 | 60.03895 | 5.27350 | 24047 ft | 341 kts | 173° |
| 2026-04-21 14:52 | 60.01550 | 5.28010 | 24048 ft | 340 kts | 173° |
| 2026-04-21 14:52 | 59.99203 | 5.28669 | 24047 ft | 340 kts | 173° |
| 2026-04-21 14:52 | 59.96856 | 5.29327 | 24047 ft | 340 kts | 173° |
| 2026-04-21 14:53 | 59.94508 | 5.29985 | 24047 ft | 339 kts | 173° |
| 2026-04-21 14:53 | 59.92168 | 5.30639 | 24047 ft | 339 kts | 173° |
| 2026-04-21 14:53 | 59.89836 | 5.31290 | 24053 ft | 339 kts | 173° |
| 2026-04-21 14:53 | 59.87506 | 5.31939 | 24045 ft | 338 kts | 173° |
| 2026-04-21 14:54 | 59.85201 | 5.32581 | 24051 ft | 338 kts | 173° |
| 2026-04-21 14:54 | 59.82867 | 5.33231 | 24050 ft | 338 kts | 173° |
| 2026-04-21 14:54 | 59.80529 | 5.33727 | 24053 ft | 338 kts | 179° |
| 2026-04-21 14:54 | 59.78188 | 5.33656 | 24052 ft | 337 kts | 184° |
| 2026-04-21 14:55 | 59.75880 | 5.33247 | 24040 ft | 337 kts | 186° |
| 2026-04-21 14:55 | 59.73558 | 5.32665 | 24041 ft | 337 kts | 188° |
| 2026-04-21 14:55 | 59.71236 | 5.31996 | 24030 ft | 336 kts | 188° |
| 2026-04-21 14:55 | 59.68927 | 5.31286 | 24036 ft | 336 kts | 189° |
| 2026-04-21 14:56 | 59.66616 | 5.30554 | 24039 ft | 336 kts | 189° |
| 2026-04-21 14:56 | 59.64306 | 5.29812 | 24041 ft | 336 kts | 189° |
| 2026-04-21 14:56 | 59.62001 | 5.29067 | 24041 ft | 336 kts | 189° |
| 2026-04-21 14:56 | 59.59694 | 5.28319 | 24042 ft | 336 kts | 189° |
| 2026-04-21 14:57 | 59.57385 | 5.27570 | 24045 ft | 336 kts | 189° |
| 2026-04-21 14:57 | 59.55077 | 5.26822 | 24049 ft | 336 kts | 189° |
| 2026-04-21 14:57 | 59.52771 | 5.26075 | 24044 ft | 336 kts | 189° |
| 2026-04-21 14:57 | 59.50467 | 5.25330 | 24051 ft | 336 kts | 189° |
| 2026-04-21 14:58 | 59.48168 | 5.24588 | 24054 ft | 336 kts | 189° |
| 2026-04-21 14:58 | 59.45869 | 5.23846 | 24052 ft | 336 kts | 189° |
| 2026-04-21 14:58 | 59.43560 | 5.23103 | 24051 ft | 336 kts | 189° |
| 2026-04-21 14:58 | 59.41274 | 5.22368 | 24047 ft | 336 kts | 189° |
| 2026-04-21 14:59 | 59.38973 | 5.21638 | 24050 ft | 336 kts | 188° |
| 2026-04-21 14:59 | 59.36716 | 5.20442 | 24047 ft | 337 kts | 204° |
| 2026-04-21 14:59 | 59.34756 | 5.17933 | 24052 ft | 339 kts | 218° |
| 2026-04-21 14:59 | 59.33029 | 5.14768 | 24060 ft | 341 kts | 224° |
| 2026-04-21 15:00 | 59.31435 | 5.11302 | 24051 ft | 342 kts | 227° |
| 2026-04-21 15:00 | 59.29917 | 5.07694 | 24050 ft | 343 kts | 229° |
| 2026-04-21 15:00 | 59.28444 | 5.04033 | 24049 ft | 343 kts | 230° |
| 2026-04-21 15:00 | 59.26983 | 5.00327 | 24054 ft | 344 kts | 230° |
| 2026-04-21 15:01 | 59.25532 | 4.96608 | 24031 ft | 344 kts | 230° |
| 2026-04-21 15:01 | 59.24087 | 4.92890 | 24028 ft | 344 kts | 230° |
| 2026-04-21 15:01 | 59.22648 | 4.89184 | 24030 ft | 345 kts | 230° |
| 2026-04-21 15:01 | 59.21196 | 4.85446 | 24039 ft | 345 kts | 230° |
| 2026-04-21 15:02 | 59.19744 | 4.81711 | 24037 ft | 345 kts | 230° |
| 2026-04-21 15:02 | 59.18287 | 4.77968 | 24039 ft | 346 kts | 230° |
| 2026-04-21 15:02 | 59.16833 | 4.74238 | 24041 ft | 346 kts | 230° |
| 2026-04-21 15:02 | 59.15378 | 4.70513 | 24043 ft | 346 kts | 230° |
| 2026-04-21 15:03 | 59.13917 | 4.66775 | 24046 ft | 346 kts | 230° |
| 2026-04-21 15:03 | 59.12454 | 4.63040 | 24046 ft | 346 kts | 230° |
| 2026-04-21 15:03 | 59.10995 | 4.59322 | 24049 ft | 346 kts | 230° |
| 2026-04-21 15:03 | 59.09533 | 4.55601 | 24049 ft | 346 kts | 230° |
| 2026-04-21 15:04 | 59.08068 | 4.51879 | 24049 ft | 346 kts | 230° |
| 2026-04-21 15:04 | 59.06617 | 4.48199 | 24049 ft | 346 kts | 230° |
| 2026-04-21 15:04 | 59.05149 | 4.44482 | 24053 ft | 347 kts | 230° |
| 2026-04-21 15:04 | 59.03679 | 4.40766 | 24049 ft | 347 kts | 230° |
| 2026-04-21 15:05 | 59.02207 | 4.37051 | 24049 ft | 347 kts | 230° |
| 2026-04-21 15:05 | 58.99270 | 4.29654 | 24057 ft | 347 kts | 230° |
| 2026-04-21 15:05 | 58.97789 | 4.25935 | 24057 ft | 348 kts | 230° |
| 2026-04-21 15:06 | 58.96311 | 4.22229 | 24064 ft | 348 kts | 230° |
| 2026-04-21 15:06 | 58.94831 | 4.18523 | 24054 ft | 348 kts | 230° |
| 2026-04-21 15:06 | 58.93356 | 4.14833 | 24219 ft | 344 kts | 229° |
| 2026-04-21 15:06 | 58.91901 | 4.11200 | 24436 ft | 338 kts | 230° |
| 2026-04-21 15:07 | 58.90464 | 4.07619 | 24553 ft | 337 kts | 230° |
| 2026-04-21 15:07 | 58.89017 | 4.04023 | 24541 ft | 340 kts | 230° |
| 2026-04-21 15:07 | 58.87561 | 4.00406 | 24524 ft | 342 kts | 229° |
| 2026-04-21 15:07 | 58.86096 | 3.96771 | 24524 ft | 343 kts | 229° |
| 2026-04-21 15:08 | 58.84624 | 3.93126 | 24523 ft | 344 kts | 230° |
| 2026-04-21 15:08 | 58.83168 | 3.89526 | 24527 ft | 345 kts | 230° |
| 2026-04-21 15:08 | 58.81685 | 3.85865 | 24533 ft | 346 kts | 229° |
| 2026-04-21 15:08 | 58.80200 | 3.82205 | 24527 ft | 347 kts | 229° |
| 2026-04-21 15:09 | 58.78710 | 3.78537 | 24522 ft | 347 kts | 229° |
| 2026-04-21 15:09 | 58.77221 | 3.74880 | 24531 ft | 348 kts | 230° |
| 2026-04-21 15:09 | 58.75722 | 3.71201 | 24541 ft | 349 kts | 229° |
| 2026-04-21 15:09 | 58.74221 | 3.67525 | 24530 ft | 349 kts | 229° |
| 2026-04-21 15:10 | 58.72716 | 3.63846 | 24530 ft | 350 kts | 230° |
| 2026-04-21 15:10 | 58.71208 | 3.60164 | 24530 ft | 350 kts | 230° |
| 2026-04-21 15:10 | 58.69708 | 3.56507 | 24533 ft | 350 kts | 229° |
| 2026-04-21 15:10 | 58.68197 | 3.52830 | 24540 ft | 350 kts | 229° |
| 2026-04-21 15:11 | 58.66691 | 3.49169 | 24533 ft | 351 kts | 230° |
| 2026-04-21 15:11 | 58.65176 | 3.45493 | 24538 ft | 351 kts | 229° |
| 2026-04-21 15:11 | 58.63672 | 3.41850 | 24532 ft | 351 kts | 229° |
| 2026-04-21 15:11 | 58.62155 | 3.38181 | 24541 ft | 351 kts | 229° |
| 2026-04-21 15:12 | 58.60634 | 3.34508 | 24548 ft | 351 kts | 230° |
| 2026-04-21 15:12 | 58.59118 | 3.30853 | 24533 ft | 351 kts | 229° |
| 2026-04-21 15:12 | 58.57592 | 3.27178 | 24532 ft | 351 kts | 229° |
| 2026-04-21 15:12 | 58.56067 | 3.23514 | 24555 ft | 351 kts | 229° |
| 2026-04-21 15:13 | 58.55041 | 3.21050 | 24556 ft | 351 kts | 230° |
| 2026-04-21 15:13 | 58.53021 | 3.16209 | 24551 ft | 351 kts | 229° |
| 2026-04-21 15:13 | 58.51494 | 3.12556 | 24559 ft | 351 kts | 229° |
| 2026-04-21 15:13 | 58.49966 | 3.08906 | 24550 ft | 352 kts | 229° |
| 2026-04-21 15:14 | 58.48441 | 3.05269 | 24550 ft | 352 kts | 229° |
| 2026-04-21 15:14 | 58.46910 | 3.01623 | 24550 ft | 352 kts | 229° |
| 2026-04-21 15:14 | 58.45375 | 2.97975 | 24540 ft | 352 kts | 230° |
| 2026-04-21 15:14 | 58.43836 | 2.94322 | 24544 ft | 353 kts | 230° |
| 2026-04-21 15:15 | 58.42298 | 2.90676 | 24548 ft | 353 kts | 229° |
| 2026-04-21 15:15 | 58.40761 | 2.87016 | 24540 ft | 353 kts | 224° |
| 2026-04-21 15:15 | 58.38879 | 2.84065 | 24553 ft | 350 kts | 211° |
| 2026-04-21 15:15 | 58.36774 | 2.81755 | 24543 ft | 349 kts | 206° |
| 2026-04-21 15:16 | 58.35327 | 2.80408 | 24560 ft | 349 kts | 203° |
| 2026-04-21 15:16 | 58.33108 | 2.78529 | 24540 ft | 349 kts | 201° |
| 2026-04-21 15:16 | 58.30871 | 2.76754 | 24541 ft | 349 kts | 200° |
| 2026-04-21 15:16 | 58.28610 | 2.75018 | 24547 ft | 350 kts | 199° |
| 2026-04-21 15:17 | 58.26347 | 2.73310 | 24552 ft | 350 kts | 200° |
| 2026-04-21 15:17 | 58.24079 | 2.71612 | 24541 ft | 350 kts | 200° |
| 2026-04-21 15:17 | 58.21804 | 2.69917 | 24560 ft | 350 kts | 199° |
| 2026-04-21 15:17 | 58.19539 | 2.68236 | 24546 ft | 350 kts | 200° |
| 2026-04-21 15:18 | 58.17265 | 2.66551 | 24552 ft | 350 kts | 199° |
| 2026-04-21 15:18 | 58.14995 | 2.64872 | 24551 ft | 351 kts | 199° |
| 2026-04-21 15:18 | 58.12733 | 2.63201 | 24552 ft | 351 kts | 199° |
| 2026-04-21 15:18 | 58.10453 | 2.61519 | 24550 ft | 351 kts | 199° |
| 2026-04-21 15:19 | 58.08184 | 2.59848 | 24549 ft | 352 kts | 199° |
| 2026-04-21 15:19 | 58.05902 | 2.58169 | 24547 ft | 352 kts | 199° |
| 2026-04-21 15:19 | 58.03622 | 2.56494 | 24548 ft | 352 kts | 199° |
| 2026-04-21 15:19 | 58.01340 | 2.54819 | 24548 ft | 352 kts | 199° |
| 2026-04-21 15:20 | 57.99053 | 2.53143 | 24547 ft | 352 kts | 199° |
| 2026-04-21 15:20 | 57.96766 | 2.51470 | 24548 ft | 352 kts | 199° |
| 2026-04-21 15:20 | 57.94488 | 2.49805 | 24549 ft | 352 kts | 199° |
| 2026-04-21 15:20 | 57.92205 | 2.48138 | 24550 ft | 352 kts | 199° |
| 2026-04-21 15:21 | 57.89912 | 2.46467 | 24551 ft | 352 kts | 199° |
| 2026-04-21 15:21 | 57.87669 | 2.44834 | 24546 ft | 352 kts | 199° |
| 2026-04-21 15:21 | 57.85355 | 2.43151 | 24550 ft | 353 kts | 199° |
| 2026-04-21 15:21 | 57.83089 | 2.41506 | 24551 ft | 353 kts | 199° |
| 2026-04-21 15:22 | 57.80796 | 2.39843 | 24551 ft | 354 kts | 199° |
| 2026-04-21 15:22 | 57.78498 | 2.38179 | 24543 ft | 354 kts | 199° |
| 2026-04-21 15:22 | 57.76198 | 2.36515 | 24543 ft | 355 kts | 199° |
| 2026-04-21 15:22 | 57.73889 | 2.34847 | 24542 ft | 355 kts | 199° |
| 2026-04-21 15:23 | 57.71588 | 2.33187 | 24542 ft | 355 kts | 199° |
| 2026-04-21 15:23 | 57.69276 | 2.31522 | 24543 ft | 356 kts | 199° |
| 2026-04-21 15:23 | 57.66960 | 2.29855 | 24542 ft | 356 kts | 199° |
| 2026-04-21 15:23 | 57.64651 | 2.28196 | 24543 ft | 356 kts | 199° |
| 2026-04-21 15:24 | 57.62338 | 2.26536 | 24546 ft | 356 kts | 198° |
| 2026-04-21 15:24 | 57.60031 | 2.24884 | 24540 ft | 356 kts | 199° |
| 2026-04-21 15:24 | 57.57724 | 2.23233 | 24540 ft | 356 kts | 199° |
| 2026-04-21 15:24 | 57.55430 | 2.21592 | 24540 ft | 356 kts | 199° |
| 2026-04-21 15:25 | 57.53085 | 2.19919 | 24540 ft | 357 kts | 199° |
| 2026-04-21 15:25 | 57.50776 | 2.18273 | 24540 ft | 356 kts | 199° |
| 2026-04-21 15:25 | 57.48461 | 2.16625 | 24540 ft | 356 kts | 199° |
| 2026-04-21 15:25 | 57.46176 | 2.15001 | 24548 ft | 356 kts | 199° |
| 2026-04-21 15:26 | 57.43857 | 2.13354 | 24550 ft | 356 kts | 199° |
| 2026-04-21 15:26 | 57.41542 | 2.11712 | 24550 ft | 356 kts | 198° |
| 2026-04-21 15:26 | 57.39220 | 2.10068 | 24551 ft | 357 kts | 198° |
| 2026-04-21 15:26 | 57.36905 | 2.08432 | 24550 ft | 357 kts | 199° |
| 2026-04-21 15:27 | 57.34584 | 2.06792 | 24552 ft | 357 kts | 199° |
| 2026-04-21 15:27 | 57.32276 | 2.05165 | 24547 ft | 357 kts | 198° |
| 2026-04-21 15:27 | 57.29954 | 2.03529 | 24548 ft | 357 kts | 199° |
| 2026-04-21 15:27 | 57.27639 | 2.01901 | 24548 ft | 357 kts | 199° |
| 2026-04-21 15:28 | 57.25314 | 2.00267 | 24545 ft | 357 kts | 198° |
| 2026-04-21 15:28 | 57.22988 | 1.98636 | 24546 ft | 357 kts | 198° |
| 2026-04-21 15:28 | 57.20678 | 1.97018 | 24546 ft | 357 kts | 199° |
| 2026-04-21 15:28 | 57.18355 | 1.95392 | 24546 ft | 357 kts | 199° |
| 2026-04-21 15:29 | 57.16032 | 1.93769 | 24542 ft | 357 kts | 199° |
| 2026-04-21 15:29 | 57.13710 | 1.92149 | 24543 ft | 357 kts | 198° |
| 2026-04-21 15:29 | 57.11385 | 1.90528 | 24542 ft | 357 kts | 198° |
| 2026-04-21 15:29 | 57.09070 | 1.88917 | 24551 ft | 357 kts | 199° |
| 2026-04-21 15:30 | 57.06744 | 1.87301 | 24546 ft | 357 kts | 199° |
| 2026-04-21 15:30 | 57.04421 | 1.85688 | 24547 ft | 357 kts | 199° |
| 2026-04-21 15:30 | 57.02096 | 1.84076 | 24545 ft | 357 kts | 198° |
| 2026-04-21 15:30 | 56.99768 | 1.82465 | 24545 ft | 357 kts | 198° |
| 2026-04-21 15:31 | 56.97444 | 1.80858 | 24545 ft | 358 kts | 199° |
| 2026-04-21 15:31 | 56.95114 | 1.79250 | 24545 ft | 358 kts | 198° |
| 2026-04-21 15:31 | 56.92807 | 1.77659 | 24540 ft | 358 kts | 198° |
| 2026-04-21 15:31 | 56.90481 | 1.76057 | 24540 ft | 358 kts | 198° |
| 2026-04-21 15:32 | 56.88148 | 1.74453 | 24540 ft | 358 kts | 199° |
| 2026-04-21 15:32 | 56.85812 | 1.72849 | 24540 ft | 358 kts | 198° |
| 2026-04-21 15:32 | 56.83482 | 1.71250 | 24540 ft | 358 kts | 198° |
| 2026-04-21 15:32 | 56.81149 | 1.69653 | 24540 ft | 358 kts | 198° |
| 2026-04-21 15:33 | 56.78822 | 1.68061 | 24537 ft | 358 kts | 198° |
| 2026-04-21 15:33 | 56.76484 | 1.66464 | 24537 ft | 358 kts | 198° |
| 2026-04-21 15:33 | 56.74149 | 1.64870 | 24537 ft | 358 kts | 198° |
| 2026-04-21 15:33 | 56.71842 | 1.63298 | 24534 ft | 358 kts | 198° |
| 2026-04-21 15:34 | 56.69477 | 1.61689 | 24540 ft | 358 kts | 198° |
| 2026-04-21 15:34 | 56.67164 | 1.60118 | 24537 ft | 359 kts | 198° |
| 2026-04-21 15:34 | 56.64834 | 1.58536 | 24537 ft | 359 kts | 198° |
| 2026-04-21 15:34 | 56.62497 | 1.56952 | 24537 ft | 359 kts | 198° |
| 2026-04-21 15:35 | 56.60163 | 1.55372 | 24532 ft | 359 kts | 198° |
| 2026-04-21 15:35 | 56.57823 | 1.53791 | 24532 ft | 358 kts | 198° |
| 2026-04-21 15:35 | 56.55483 | 1.52210 | 24537 ft | 359 kts | 198° |
| 2026-04-21 15:35 | 56.53147 | 1.50636 | 24532 ft | 359 kts | 198° |
| 2026-04-21 15:36 | 56.50810 | 1.49062 | 24529 ft | 359 kts | 198° |
| 2026-04-21 15:36 | 56.48471 | 1.47490 | 24529 ft | 359 kts | 198° |
| 2026-04-21 15:36 | 56.46127 | 1.45915 | 24529 ft | 359 kts | 198° |
| 2026-04-21 15:36 | 56.43796 | 1.44352 | 24529 ft | 358 kts | 198° |
| 2026-04-21 15:37 | 56.41456 | 1.42785 | 24529 ft | 358 kts | 198° |
| 2026-04-21 15:37 | 56.39121 | 1.41223 | 24526 ft | 358 kts | 198° |
| 2026-04-21 15:37 | 56.36782 | 1.39660 | 24526 ft | 358 kts | 198° |
| 2026-04-21 15:37 | 56.34443 | 1.38100 | 24526 ft | 358 kts | 198° |
| 2026-04-21 15:38 | 56.32106 | 1.36543 | 24529 ft | 358 kts | 198° |
| 2026-04-21 15:38 | 56.29764 | 1.34985 | 24534 ft | 358 kts | 198° |
| 2026-04-21 15:38 | 56.27457 | 1.33451 | 24526 ft | 358 kts | 198° |
| 2026-04-21 15:38 | 56.25115 | 1.31897 | 24526 ft | 359 kts | 198° |
| 2026-04-21 15:39 | 56.22772 | 1.30344 | 24526 ft | 359 kts | 198° |
| 2026-04-21 15:39 | 56.20435 | 1.28797 | 24527 ft | 359 kts | 198° |
| 2026-04-21 15:39 | 56.18101 | 1.27253 | 24527 ft | 359 kts | 198° |
| 2026-04-21 15:39 | 56.15762 | 1.25709 | 24526 ft | 359 kts | 198° |
| 2026-04-21 15:40 | 56.13420 | 1.24165 | 24526 ft | 359 kts | 198° |
| 2026-04-21 15:40 | 56.11077 | 1.22622 | 24527 ft | 359 kts | 198° |
| 2026-04-21 15:40 | 56.08742 | 1.21086 | 24524 ft | 358 kts | 198° |
| 2026-04-21 15:40 | 56.06401 | 1.19549 | 24524 ft | 358 kts | 198° |
| 2026-04-21 15:41 | 56.04056 | 1.18010 | 24526 ft | 358 kts | 198° |
| 2026-04-21 15:41 | 56.01710 | 1.16473 | 24524 ft | 359 kts | 198° |
| 2026-04-21 15:41 | 55.99369 | 1.14941 | 24524 ft | 358 kts | 198° |
| 2026-04-21 15:41 | 55.97027 | 1.13411 | 24522 ft | 358 kts | 198° |
| 2026-04-21 15:42 | 55.94685 | 1.11883 | 24525 ft | 358 kts | 198° |
| 2026-04-21 15:42 | 55.92340 | 1.10354 | 24524 ft | 358 kts | 198° |
| 2026-04-21 15:42 | 55.90014 | 1.08840 | 24520 ft | 358 kts | 198° |
| 2026-04-21 15:42 | 55.87676 | 1.07320 | 24513 ft | 358 kts | 198° |
| 2026-04-21 15:43 | 55.85337 | 1.05802 | 24516 ft | 358 kts | 198° |
| 2026-04-21 15:43 | 55.82996 | 1.04284 | 24516 ft | 358 kts | 198° |
| 2026-04-21 15:43 | 55.80658 | 1.02770 | 24516 ft | 358 kts | 198° |
| 2026-04-21 15:43 | 55.78323 | 1.01259 | 24517 ft | 357 kts | 198° |
| 2026-04-21 15:44 | 55.75983 | 0.99748 | 24517 ft | 358 kts | 198° |
| 2026-04-21 15:44 | 55.73642 | 0.98238 | 24512 ft | 357 kts | 197° |
| 2026-04-21 15:44 | 55.71339 | 0.96754 | 24512 ft | 357 kts | 198° |
| 2026-04-21 15:44 | 55.68998 | 0.95248 | 24513 ft | 357 kts | 198° |
| 2026-04-21 15:45 | 55.66663 | 0.93747 | 24515 ft | 357 kts | 197° |
| 2026-04-21 15:45 | 55.64325 | 0.92246 | 24513 ft | 357 kts | 197° |
| 2026-04-21 15:45 | 55.62000 | 0.90756 | 24513 ft | 357 kts | 198° |
| 2026-04-21 15:45 | 55.59671 | 0.89265 | 24513 ft | 357 kts | 198° |
| 2026-04-21 15:46 | 55.57334 | 0.87771 | 24508 ft | 357 kts | 197° |
| 2026-04-21 15:46 | 55.55001 | 0.86281 | 24507 ft | 357 kts | 197° |
| 2026-04-21 15:46 | 55.52666 | 0.84792 | 24508 ft | 357 kts | 197° |
| 2026-04-21 15:46 | 55.50328 | 0.83302 | 24512 ft | 357 kts | 197° |
| 2026-04-21 15:47 | 55.48022 | 0.81835 | 24507 ft | 357 kts | 198° |
| 2026-04-21 15:47 | 55.45683 | 0.80349 | 24505 ft | 357 kts | 197° |
| 2026-04-21 15:47 | 55.43347 | 0.78866 | 24505 ft | 357 kts | 197° |
| 2026-04-21 15:47 | 55.41010 | 0.77385 | 24505 ft | 357 kts | 197° |
| 2026-04-21 15:48 | 55.38676 | 0.75908 | 24503 ft | 357 kts | 197° |
| 2026-04-21 15:48 | 55.36347 | 0.74435 | 24502 ft | 357 kts | 197° |
| 2026-04-21 15:48 | 55.34004 | 0.72956 | 24503 ft | 357 kts | 197° |
| 2026-04-21 15:48 | 55.31678 | 0.71489 | 24502 ft | 357 kts | 197° |
| 2026-04-21 15:49 | 55.29344 | 0.70019 | 24502 ft | 357 kts | 197° |
| 2026-04-21 15:49 | 55.27008 | 0.68550 | 24502 ft | 357 kts | 197° |
| 2026-04-21 15:49 | 55.24673 | 0.67083 | 24501 ft | 357 kts | 197° |
| 2026-04-21 15:49 | 55.22335 | 0.65616 | 24493 ft | 357 kts | 197° |
| 2026-04-21 15:50 | 55.19995 | 0.64150 | 24491 ft | 357 kts | 197° |
| 2026-04-21 15:50 | 55.17657 | 0.62686 | 24494 ft | 357 kts | 197° |
| 2026-04-21 15:50 | 55.15336 | 0.61235 | 24492 ft | 357 kts | 197° |
| 2026-04-21 15:50 | 55.12967 | 0.59756 | 24492 ft | 357 kts | 197° |
| 2026-04-21 15:51 | 55.10634 | 0.58301 | 24491 ft | 357 kts | 197° |
| 2026-04-21 15:51 | 55.08309 | 0.56854 | 24491 ft | 357 kts | 197° |
| 2026-04-21 15:51 | 55.05969 | 0.55398 | 24491 ft | 357 kts | 197° |
| 2026-04-21 15:51 | 55.03657 | 0.53962 | 24491 ft | 357 kts | 197° |
| 2026-04-21 15:52 | 55.01319 | 0.52512 | 24493 ft | 357 kts | 197° |
| 2026-04-21 15:52 | 54.98949 | 0.51207 | 24495 ft | 357 kts | 194° |
| 2026-04-21 15:52 | 54.97336 | 0.50399 | 24491 ft | 357 kts | 193° |
| 2026-04-21 15:52 | 54.94177 | 0.48832 | 24483 ft | 357 kts | 193° |
| 2026-04-21 15:53 | 54.91790 | 0.47655 | 24487 ft | 357 kts | 193° |
| 2026-04-21 15:53 | 54.89396 | 0.46479 | 24483 ft | 357 kts | 193° |
| 2026-04-21 15:53 | 54.87010 | 0.45309 | 24484 ft | 357 kts | 193° |
| 2026-04-21 15:53 | 54.84620 | 0.44140 | 24480 ft | 356 kts | 193° |
| 2026-04-21 15:54 | 54.82234 | 0.42974 | 24484 ft | 356 kts | 193° |
| 2026-04-21 15:54 | 54.79857 | 0.41814 | 24485 ft | 356 kts | 193° |
| 2026-04-21 15:54 | 54.77470 | 0.40651 | 24483 ft | 356 kts | 193° |
| 2026-04-21 15:54 | 54.75074 | 0.39485 | 24484 ft | 356 kts | 193° |
| 2026-04-21 15:55 | 54.72684 | 0.38323 | 24477 ft | 357 kts | 193° |
| 2026-04-21 15:55 | 54.70294 | 0.37162 | 24479 ft | 357 kts | 193° |
| 2026-04-21 15:55 | 54.67905 | 0.36004 | 24478 ft | 357 kts | 194° |
| 2026-04-21 15:55 | 54.65516 | 0.34846 | 24478 ft | 357 kts | 193° |
| 2026-04-21 15:56 | 54.63128 | 0.33691 | 24477 ft | 357 kts | 193° |
| 2026-04-21 15:56 | 54.60735 | 0.32534 | 24475 ft | 357 kts | 193° |
| 2026-04-21 15:56 | 54.58374 | 0.31395 | 24475 ft | 357 kts | 193° |
| 2026-04-21 15:56 | 54.55982 | 0.30242 | 24475 ft | 357 kts | 193° |
| 2026-04-21 15:57 | 54.53590 | 0.29090 | 24467 ft | 357 kts | 193° |
| 2026-04-21 15:57 | 54.51199 | 0.27941 | 24467 ft | 357 kts | 193° |
| 2026-04-21 15:57 | 54.48807 | 0.26792 | 24472 ft | 357 kts | 193° |
| 2026-04-21 15:57 | 54.46428 | 0.25650 | 24467 ft | 357 kts | 193° |
| 2026-04-21 15:58 | 54.44041 | 0.24506 | 24461 ft | 357 kts | 193° |
| 2026-04-21 15:58 | 54.41640 | 0.23358 | 24462 ft | 357 kts | 193° |
| 2026-04-21 15:58 | 54.39248 | 0.22214 | 24462 ft | 357 kts | 193° |
| 2026-04-21 15:58 | 54.36853 | 0.21071 | 24462 ft | 357 kts | 193° |
| 2026-04-21 15:59 | 54.35266 | 0.20315 | 24462 ft | 357 kts | 193° |
| 2026-04-21 15:59 | 54.32060 | 0.18787 | 24462 ft | 357 kts | 193° |
| 2026-04-21 15:59 | 54.29669 | 0.17650 | 24462 ft | 357 kts | 193° |
| 2026-04-21 15:59 | 54.27271 | 0.16511 | 24462 ft | 357 kts | 193° |
| 2026-04-21 16:00 | 54.24868 | 0.15371 | 24462 ft | 357 kts | 193° |
| 2026-04-21 16:00 | 54.22503 | 0.14250 | 24456 ft | 357 kts | 193° |
| 2026-04-21 16:00 | 54.20111 | 0.13117 | 24463 ft | 358 kts | 193° |
| 2026-04-21 16:00 | 54.17711 | 0.11983 | 24459 ft | 358 kts | 193° |
| 2026-04-21 16:01 | 54.15307 | 0.10848 | 24456 ft | 358 kts | 193° |
| 2026-04-21 16:01 | 54.12902 | 0.09713 | 24453 ft | 358 kts | 193° |
| 2026-04-21 16:01 | 54.10502 | 0.08582 | 24452 ft | 358 kts | 193° |
| 2026-04-21 16:01 | 54.08904 | 0.07830 | 24457 ft | 359 kts | 193° |
| 2026-04-21 16:02 | 54.06499 | 0.06699 | 24455 ft | 359 kts | 193° |
| 2026-04-21 16:02 | 54.04061 | 0.05555 | 24445 ft | 359 kts | 193° |
| 2026-04-21 16:02 | 54.01687 | 0.04441 | 24448 ft | 359 kts | 193° |
| 2026-04-21 16:02 | 53.99247 | 0.03298 | 24454 ft | 359 kts | 193° |
| 2026-04-21 16:03 | 53.96867 | 0.02185 | 24445 ft | 359 kts | 193° |
| 2026-04-21 16:03 | 53.94421 | 0.01043 | 23987 ft | 372 kts | 193° |
| 2026-04-21 16:03 | 53.91889 | -0.00138 | 23374 ft | 383 kts | 193° |
| 2026-04-21 16:03 | 53.89306 | -0.01343 | 22804 ft | 389 kts | 193° |
| 2026-04-21 16:04 | 53.86673 | -0.02569 | 22241 ft | 395 kts | 193° |
| 2026-04-21 16:04 | 53.84006 | -0.03809 | 21691 ft | 398 kts | 193° |
| 2026-04-21 16:04 | 53.81325 | -0.05055 | 21148 ft | 400 kts | 193° |
| 2026-04-21 16:04 | 53.78657 | -0.06293 | 20624 ft | 397 kts | 193° |
| 2026-04-21 16:05 | 53.75994 | -0.07527 | 20110 ft | 395 kts | 194° |
| 2026-04-21 16:05 | 53.73404 | -0.09096 | 19596 ft | 394 kts | 195° |
| 2026-04-21 16:05 | 53.70719 | -0.09579 | 19081 ft | 387 kts | 172° |
| 2026-04-21 16:05 | 53.68106 | -0.08704 | 18572 ft | 382 kts | 163° |
| 2026-04-21 16:06 | 53.65568 | -0.07413 | 18042 ft | 379 kts | 159° |
| 2026-04-21 16:06 | 53.63086 | -0.05966 | 17491 ft | 376 kts | 157° |
| 2026-04-21 16:06 | 53.60633 | -0.04451 | 16940 ft | 374 kts | 156° |
| 2026-04-21 16:06 | 53.58216 | -0.02919 | 16386 ft | 373 kts | 157° |
| 2026-04-21 16:07 | 53.55797 | -0.01372 | 15864 ft | 373 kts | 156° |
| 2026-04-21 16:07 | 53.53378 | 0.00182 | 15339 ft | 371 kts | 156° |
| 2026-04-21 16:07 | 53.50972 | 0.01730 | 14854 ft | 369 kts | 156° |
| 2026-04-21 16:07 | 53.48573 | 0.03273 | 14314 ft | 369 kts | 156° |
| 2026-04-21 16:08 | 53.43787 | 0.06347 | 13173 ft | 367 kts | 156° |
| 2026-04-21 16:08 | 53.41399 | 0.07878 | 12624 ft | 366 kts | 156° |
| 2026-04-21 16:08 | 53.39025 | 0.09399 | 12072 ft | 365 kts | 156° |
| 2026-04-21 16:09 | 53.36666 | 0.10907 | 11539 ft | 359 kts | 156° |
| 2026-04-21 16:09 | 53.34361 | 0.12379 | 11006 ft | 351 kts | 156° |
| 2026-04-21 16:09 | 53.32096 | 0.13824 | 10490 ft | 345 kts | 156° |
| 2026-04-21 16:09 | 53.29867 | 0.15246 | 9936 ft | 340 kts | 155° |
| 2026-04-21 16:10 | 53.27667 | 0.16647 | 9372 ft | 336 kts | 155° |
| 2026-04-21 16:10 | 53.25527 | 0.18009 | 8818 ft | 329 kts | 155° |
| 2026-04-21 16:10 | 53.23414 | 0.19348 | 8277 ft | 321 kts | 155° |
| 2026-04-21 16:10 | 53.21316 | 0.20678 | 7734 ft | 316 kts | 155° |
| 2026-04-21 16:11 | 53.19300 | 0.21957 | 7219 ft | 312 kts | 155° |
| 2026-04-21 16:11 | 53.17259 | 0.23250 | 6681 ft | 309 kts | 155° |
| 2026-04-21 16:11 | 53.15286 | 0.24499 | 6127 ft | 306 kts | 155° |
| 2026-04-21 16:11 | 53.13298 | 0.25756 | 5577 ft | 303 kts | 155° |
| 2026-04-21 16:12 | 53.11336 | 0.26994 | 5032 ft | 300 kts | 155° |
| 2026-04-21 16:12 | 53.09395 | 0.28218 | 4477 ft | 297 kts | 154° |
| 2026-04-21 16:12 | 53.07467 | 0.29433 | 3928 ft | 295 kts | 154° |
| 2026-04-21 16:12 | 53.05459 | 0.30201 | 3366 ft | 302 kts | 174° |
| 2026-04-21 16:13 | 53.03385 | 0.29926 | 3078 ft | 295 kts | 181° |
| 2026-04-21 16:13 | 53.01395 | 0.29404 | 3012 ft | 285 kts | 190° |
| 2026-04-21 16:13 | 52.99536 | 0.28395 | 2998 ft | 276 kts | 194° |
| 2026-04-21 16:13 | 52.97757 | 0.27360 | 2976 ft | 267 kts | 194° |
| 2026-04-21 16:14 | 52.95984 | 0.26339 | 2984 ft | 279 kts | 194° |
| 2026-04-21 16:14 | 52.94079 | 0.25263 | 2989 ft | 297 kts | 194° |
| 2026-04-21 16:14 | 52.92078 | 0.24134 | 2980 ft | 310 kts | 194° |
| 2026-04-21 16:14 | 52.90001 | 0.22977 | 2979 ft | 318 kts | 194° |
| 2026-04-21 16:15 | 52.87883 | 0.21817 | 2849 ft | 327 kts | 194° |
| 2026-04-21 16:15 | 52.85728 | 0.20635 | 2660 ft | 334 kts | 194° |
| 2026-04-21 16:15 | 52.83513 | 0.19437 | 2615 ft | 334 kts | 194° |
| 2026-04-21 16:15 | 52.81308 | 0.18256 | 2639 ft | 333 kts | 194° |
| 2026-04-21 16:16 | 52.79103 | 0.17062 | 2634 ft | 334 kts | 194° |
| 2026-04-21 16:16 | 52.76887 | 0.15860 | 2633 ft | 335 kts | 194° |
| 2026-04-21 16:16 | 52.74680 | 0.14675 | 2630 ft | 335 kts | 194° |
| 2026-04-21 16:16 | 52.72473 | 0.13529 | 2632 ft | 330 kts | 194° |
| 2026-04-21 16:17 | 52.70291 | 0.12414 | 2623 ft | 326 kts | 194° |
| 2026-04-21 16:17 | 52.68132 | 0.11308 | 2632 ft | 323 kts | 194° |
| 2026-04-21 16:17 | 52.65995 | 0.10191 | 2628 ft | 321 kts | 194° |
| 2026-04-21 16:17 | 52.63869 | 0.09072 | 2617 ft | 320 kts | 194° |
| 2026-04-21 16:18 | 52.61722 | 0.08344 | 2623 ft | 312 kts | 180° |
| 2026-04-21 16:18 | 52.59572 | 0.08206 | 2612 ft | 305 kts | 173° |
| 2026-04-21 16:18 | 52.57501 | 0.08646 | 2611 ft | 298 kts | 166° |
| 2026-04-21 16:18 | 52.55459 | 0.09189 | 2615 ft | 296 kts | 165° |
| 2026-04-21 16:19 | 52.53460 | 0.09837 | 2614 ft | 287 kts | 163° |
| 2026-04-21 16:19 | 52.51544 | 0.10482 | 2613 ft | 277 kts | 163° |
| 2026-04-21 16:19 | 52.49693 | 0.11103 | 2608 ft | 266 kts | 163° |
| 2026-04-21 16:19 | 52.47913 | 0.11699 | 2602 ft | 258 kts | 162° |
| 2026-04-21 16:20 | 52.46179 | 0.12281 | 2591 ft | 253 kts | 163° |
| 2026-04-21 16:20 | 52.44492 | 0.12848 | 2602 ft | 248 kts | 163° |
| 2026-04-21 16:20 | 52.42791 | 0.13420 | 2611 ft | 245 kts | 163° |
| 2026-04-21 16:20 | 52.41132 | 0.13978 | 2610 ft | 242 kts | 162° |
| 2026-04-21 16:21 | 52.39723 | 0.15072 | 2606 ft | 212 kts | 130° |
| 2026-04-21 16:21 | 52.39135 | 0.17021 | 2548 ft | 183 kts | 95° |
| 2026-04-21 16:21 | 52.38969 | 0.19035 | 2344 ft | 174 kts | 95° |
| 2026-04-21 16:21 | 52.38811 | 0.20898 | 2337 ft | 159 kts | 94° |
| 2026-04-21 16:22 | 52.38777 | 0.22758 | 2470 ft | 168 kts | 86° |
| 2026-04-21 16:22 | 52.38842 | 0.24739 | 2569 ft | 178 kts | 85° |
| 2026-04-21 16:22 | 52.38890 | 0.26728 | 2565 ft | 175 kts | 86° |
| 2026-04-21 16:22 | 52.38839 | 0.28714 | 2338 ft | 173 kts | 91° |
| 2026-04-21 16:23 | 52.38709 | 0.30642 | 2093 ft | 168 kts | 95° |
| 2026-04-21 16:23 | 52.38464 | 0.32475 | 1864 ft | 162 kts | 101° |
| 2026-04-21 16:23 | 52.38178 | 0.34224 | 1603 ft | 157 kts | 102° |
| 2026-04-21 16:23 | 52.37899 | 0.35894 | 1418 ft | 146 kts | 101° |
| 2026-04-21 16:24 | 52.37644 | 0.37462 | 1234 ft | 138 kts | 98° |
| 2026-04-21 16:24 | 52.37448 | 0.39024 | 1122 ft | 143 kts | 96° |
| 2026-04-21 16:24 | 52.37280 | 0.40655 | 908 ft | 142 kts | 95° |
| 2026-04-21 16:24 | 52.37127 | 0.42110 | 609 ft | 117 kts | 99° |
| 2026-04-21 16:25 | 52.36938 | 0.43371 | 459 ft | 113 kts | 100° |
| 2026-04-21 16:25 | 52.36769 | 0.44637 | 324 ft | 116 kts | 101° |
| 2026-04-21 16:25 | 52.36579 | 0.45957 | 171 ft | 123 kts | 101° |
| 2026-04-21 16:25 | 52.36386 | 0.47323 | 52 ft | 119 kts | 102° |
| 2026-04-21 16:26 | 52.36229 | 0.48414 | 40 ft | 52 kts | 103° |
| 2026-04-21 16:26 | 52.36182 | 0.48756 | 41 ft | 22 kts | 101° |
| 2026-04-21 16:26 | 52.36151 | 0.48948 | 38 ft | 11 kts | 107° |
| 2026-04-21 16:26 | 52.36126 | 0.49119 | 39 ft | 20 kts | 104° |
| 2026-04-21 16:27 | 52.36087 | 0.49381 | 43 ft | 27 kts | 104° |
| 2026-04-21 16:27 | 52.36041 | 0.49709 | 40 ft | 31 kts | 106° |
| 2026-04-21 16:27 | 52.35988 | 0.50065 | 38 ft | 32 kts | 104° |
| 2026-04-21 16:27 | 52.35946 | 0.50376 | 37 ft | 23 kts | 105° |
| 2026-04-21 16:28 | 52.35888 | 0.50566 | 40 ft | 15 kts | 142° |
| 2026-04-21 16:28 | 52.35781 | 0.50576 | 39 ft | 18 kts | 195° |
| 2026-04-21 16:28 | 52.35695 | 0.50429 | 40 ft | 21 kts | 259° |
| 2026-04-21 16:28 | 52.35723 | 0.50166 | 40 ft | 25 kts | 282° |
| 2026-04-21 16:29 | 52.35767 | 0.49850 | 40 ft | 32 kts | 284° |
| 2026-04-21 16:29 | 52.36555 | 0.48566 | 41 ft | 0 kts | 309° |
| 2026-04-21 16:29 | 52.36631 | 0.48501 | 40 ft | 0 kts | 265° |